createdAt,value
2023-01-23T00:04:15.528Z,17.38
2023-01-23T00:09:36.113Z,15.27
2023-01-23T00:14:56.877Z,15.52
2023-01-23T00:20:17.934Z,20.02
2023-01-23T00:25:39.258Z,23.50
2023-01-23T00:31:10.338Z,15.35
2023-01-23T00:36:34.613Z,16.65
2023-01-23T00:41:55.819Z,16.75
2023-01-23T00:47:18.350Z,16.23
2023-01-23T00:52:39.203Z,15.10
2023-01-23T00:58:00.339Z,14.05
2023-01-23T01:03:21.514Z,13.63
2023-01-23T01:08:42.996Z,14.73
2023-01-23T01:14:05.156Z,11.02
2023-01-23T01:19:28.256Z,12.30
2023-01-23T01:24:49.152Z,11.82
2023-01-23T01:30:10.921Z,12.93
2023-01-23T01:35:32.470Z,14.15
2023-01-23T01:40:53.673Z,10.05
2023-01-23T01:46:23.695Z,14.63
2023-01-23T01:51:50.314Z,13.43
2023-01-23T01:57:21.396Z,12.82
2023-01-23T02:02:55.462Z,14.63
2023-01-23T02:08:27.379Z,13.77
2023-01-23T02:13:48.090Z,13.50
2023-01-23T02:19:35.820Z,14.68
2023-01-23T02:25:15.284Z,15.27
2023-01-23T02:30:40.225Z,13.85
2023-01-23T02:36:02.726Z,15.48
2023-01-23T02:41:28.777Z,13.10
2023-01-23T02:46:49.717Z,13.30
2023-01-23T02:52:10.581Z,15.68
2023-01-23T02:57:31.117Z,14.00
2023-01-23T03:02:52.024Z,13.23
2023-01-23T03:08:12.956Z,12.60
2023-01-23T03:13:33.783Z,13.55
2023-01-23T03:18:55.227Z,12.07
2023-01-23T03:24:16.482Z,14.40
2023-01-23T03:29:56.112Z,11.75
2023-01-23T03:35:18.034Z,12.63
2023-01-23T03:40:57.598Z,13.57
2023-01-23T03:46:19.364Z,13.90
2023-01-23T03:51:40.208Z,13.75
2023-01-23T03:57:00.846Z,14.65
2023-01-23T04:02:55.081Z,13.10
2023-01-23T04:08:16.652Z,13.85
2023-01-23T04:13:38.540Z,12.55
2023-01-23T04:18:59.267Z,14.57
2023-01-23T04:24:20.473Z,13.75
2023-01-23T04:29:42.280Z,12.80
2023-01-23T04:35:03.885Z,12.43
2023-01-23T04:40:26.249Z,9.13
2023-01-23T04:45:52.732Z,11.98
2023-01-23T04:51:28.953Z,10.68
2023-01-23T04:56:50.210Z,9.88
2023-01-23T05:02:12.944Z,9.50
2023-01-23T05:07:37.111Z,7.25
2023-01-23T05:13:01.335Z,6.72
2023-01-23T05:18:21.974Z,8.13
2023-01-23T05:23:42.655Z,7.43
2023-01-23T05:29:03.863Z,8.07
2023-01-23T05:34:25.609Z,7.05
2023-01-23T05:39:46.170Z,7.18
2023-01-23T05:45:07.799Z,8.05
2023-01-23T05:50:34.546Z,8.15
2023-01-23T05:55:56.299Z,8.65
2023-01-23T06:01:18.701Z,9.30
2023-01-23T06:06:51.692Z,9.68
2023-01-23T06:12:12.924Z,7.90
2023-01-23T06:17:33.893Z,8.93
2023-01-23T06:22:55.103Z,8.30
2023-01-23T06:28:15.775Z,8.65
2023-01-23T06:33:39.008Z,8.95
2023-01-23T06:39:03.646Z,8.73
2023-01-23T06:44:38.106Z,8.90
2023-01-23T06:50:02.070Z,8.15
2023-01-23T06:55:24.894Z,8.65
2023-01-23T07:00:46.031Z,8.18
2023-01-23T07:06:24.770Z,7.72
2023-01-23T07:11:46.102Z,7.32
2023-01-23T07:17:07.083Z,7.85
2023-01-23T07:22:28.894Z,6.68
2023-01-23T07:27:49.650Z,5.75
2023-01-23T07:33:11.984Z,6.38
2023-01-23T07:38:33.067Z,6.53
2023-01-23T07:43:54.098Z,8.95
2023-01-23T07:49:15.142Z,6.38
2023-01-23T07:54:36.143Z,8.65
2023-01-23T07:59:58.316Z,5.50
2023-01-23T08:05:19.257Z,5.25
2023-01-23T08:10:39.939Z,7.95
2023-01-23T08:16:00.760Z,6.32
2023-01-23T08:21:21.932Z,8.57
2023-01-23T08:26:43.469Z,8.32
2023-01-23T08:32:04.732Z,9.13
2023-01-23T08:37:26.020Z,9.07
2023-01-23T08:42:46.897Z,9.88
2023-01-23T08:48:08.842Z,6.95
2023-01-23T08:53:30.172Z,10.63
2023-01-23T08:58:51.840Z,10.63
2023-01-23T09:04:12.948Z,9.02
2023-01-23T09:09:33.874Z,7.43
2023-01-23T09:14:54.811Z,9.23
2023-01-23T09:20:16.148Z,9.20
2023-01-23T09:25:38.081Z,8.88
2023-01-23T09:31:03.966Z,9.98
2023-01-23T09:36:37.696Z,8.63
2023-01-23T09:42:08.455Z,7.50
2023-01-23T09:47:39.091Z,8.43
2023-01-23T09:53:08.495Z,8.95
2023-01-23T09:58:43.606Z,9.23
2023-01-23T10:04:05.434Z,8.40
2023-01-23T10:09:37.816Z,5.45
2023-01-23T10:15:07.053Z,6.75
2023-01-23T10:20:56.720Z,5.73
2023-01-23T10:26:31.730Z,5.00
2023-01-23T10:31:57.319Z,4.95
2023-01-23T10:37:42.853Z,3.78
2023-01-23T10:43:04.265Z,4.68
2023-01-23T10:48:27.992Z,5.00
2023-01-23T10:54:04.563Z,5.72
2023-01-23T10:59:29.946Z,5.43
2023-01-23T11:04:54.526Z,6.68
2023-01-23T11:10:23.320Z,4.85
2023-01-23T11:15:48.975Z,6.72
2023-01-23T11:21:33.202Z,9.30
2023-01-23T11:27:20.977Z,9.10
2023-01-23T11:32:55.232Z,8.35
2023-01-23T11:38:27.226Z,8.45
2023-01-23T11:43:50.799Z,9.00
2023-01-23T11:49:45.547Z,8.77
2023-01-23T11:55:12.431Z,7.10
2023-01-23T12:01:07.920Z,9.05
2023-01-23T12:06:47.580Z,7.45
2023-01-23T12:12:42.930Z,8.23
2023-01-23T12:18:03.913Z,6.07
2023-01-23T12:23:49.445Z,10.55
2023-01-23T12:29:22.361Z,9.27
2023-01-23T12:34:49.128Z,10.90
2023-01-23T12:40:38.672Z,11.63
2023-01-23T12:46:07.492Z,10.52
2023-01-23T12:51:39.211Z,11.40
2023-01-23T12:57:02.008Z,6.35
2023-01-23T13:02:39.092Z,11.48
2023-01-23T13:08:23.205Z,8.57
2023-01-23T13:13:46.561Z,8.32
2023-01-23T13:20:05.792Z,11.55
2023-01-23T13:25:26.557Z,10.38
2023-01-23T13:31:00.284Z,8.65
2023-01-23T13:36:26.058Z,10.93
2023-01-23T13:42:09.233Z,12.70
2023-01-23T14:22:05.594Z,9.27
2023-01-23T14:27:54.346Z,10.02
2023-01-23T14:33:18.202Z,11.60
2023-01-23T14:38:39.151Z,10.15
2023-01-23T14:44:00.892Z,8.43
2023-01-23T14:49:29.814Z,10.55
2023-01-23T14:54:54.085Z,8.82
2023-01-23T15:00:19.296Z,10.00
2023-01-23T15:05:41.754Z,9.70
2023-01-23T15:11:04.677Z,10.15
2023-01-23T15:16:34.227Z,10.90
2023-01-23T15:22:07.466Z,9.05
2023-01-23T15:27:35.246Z,8.63
2023-01-23T15:33:07.022Z,11.85
2023-01-23T15:38:28.970Z,9.05
2023-01-23T15:43:49.914Z,10.25
2023-01-23T15:49:23.671Z,10.63
2023-01-23T15:54:46.512Z,8.68
2023-01-23T16:00:25.116Z,11.65
2023-01-23T16:05:46.093Z,12.05
2023-01-23T16:11:06.999Z,8.30
2023-01-23T16:16:28.323Z,11.90
2023-01-23T16:22:03.092Z,11.30
2023-01-23T16:27:27.820Z,11.20
2023-01-23T16:32:49.494Z,10.00
2023-01-23T16:38:29.758Z,10.18
2023-01-23T16:43:50.772Z,11.70
2023-01-23T16:49:12.926Z,9.68
2023-01-23T16:54:35.473Z,10.90
2023-01-23T16:59:56.613Z,8.77
2023-01-23T17:05:18.095Z,11.13
2023-01-23T17:10:46.143Z,11.30
2023-01-23T17:16:18.753Z,11.88
2023-01-23T17:21:47.847Z,11.30
2023-01-23T17:27:08.790Z,11.30
2023-01-23T17:32:35.453Z,11.82
2023-01-23T17:37:58.002Z,11.60
2023-01-23T17:43:21.510Z,10.75
2023-01-23T17:48:42.392Z,12.82
2023-01-23T17:54:03.099Z,12.10
2023-01-23T17:59:23.711Z,11.90
2023-01-23T18:04:44.390Z,8.75
2023-01-23T18:10:06.877Z,12.32
2023-01-23T18:15:54.034Z,9.43
2023-01-23T18:21:18.005Z,9.07
2023-01-23T18:26:50.938Z,10.10
2023-01-23T18:32:24.298Z,9.48
2023-01-23T18:37:53.993Z,9.75
2023-01-23T18:43:35.614Z,9.75
2023-01-23T18:48:56.874Z,9.65
2023-01-23T18:54:50.278Z,7.65
2023-01-23T19:00:20.052Z,9.52
2023-01-23T19:05:41.319Z,7.28
2023-01-23T19:11:14.830Z,10.13
2023-01-23T19:16:43.437Z,8.93
2023-01-23T19:22:12.668Z,9.73
2023-01-23T19:27:34.605Z,9.50
2023-01-23T19:32:55.515Z,10.18
2023-01-23T19:38:16.180Z,10.32
2023-01-23T19:43:38.954Z,10.20
2023-01-23T19:49:02.233Z,8.50
2023-01-23T19:54:24.479Z,9.43
2023-01-23T19:59:45.063Z,9.75
2023-01-23T20:05:06.182Z,10.07
2023-01-23T20:10:26.926Z,11.35
2023-01-23T20:15:50.059Z,9.30
2023-01-23T20:21:11.283Z,11.50
2023-01-23T20:26:32.057Z,8.07
2023-01-23T20:31:57.431Z,10.32
2023-01-23T20:37:18.376Z,11.20
2023-01-23T20:42:40.680Z,10.13
2023-01-23T20:48:02.004Z,12.18
2023-01-23T20:53:34.903Z,9.77
2023-01-23T20:59:15.255Z,10.50
2023-01-23T21:04:36.956Z,10.55
2023-01-23T21:09:57.773Z,9.60
2023-01-23T21:15:18.605Z,11.00
2023-01-23T21:20:40.119Z,11.52
2023-01-23T21:26:02.761Z,11.32
2023-01-23T21:31:26.918Z,11.07
2023-01-23T21:36:48.235Z,12.60
2023-01-23T21:42:09.207Z,12.05
2023-01-23T21:47:30.009Z,10.73
2023-01-23T21:52:50.704Z,12.25
2023-01-23T21:58:11.404Z,11.15
2023-01-23T22:03:35.853Z,10.65
2023-01-23T22:08:57.790Z,11.35
2023-01-23T22:14:19.297Z,10.90
2023-01-23T22:19:40.087Z,10.98
2023-01-23T22:25:00.958Z,11.35
2023-01-23T22:30:21.706Z,8.73
2023-01-23T22:35:43.392Z,9.77
2023-01-23T22:41:06.061Z,10.25
2023-01-23T22:46:27.924Z,11.35
2023-01-23T22:51:49.068Z,11.65
2023-01-23T22:57:10.017Z,10.35
2023-01-23T23:02:31.457Z,10.07
2023-01-23T23:07:52.332Z,10.18
2023-01-23T23:13:13.093Z,9.23
2023-01-23T23:18:34.139Z,10.68
2023-01-23T23:23:59.967Z,10.77
2023-01-23T23:29:20.998Z,10.23
2023-01-23T23:34:41.536Z,9.50
2023-01-23T23:40:02.465Z,9.68
2023-01-23T23:45:23.627Z,10.00
2023-01-23T23:50:44.618Z,9.10
2023-01-23T23:56:06.197Z,11.15
